sensor_id;sensor_type;location;lat;lon;timestamp;P1;durP1;ratioP1;P2;durP2;ratioP2
27612;SDS011;15036;48.094;-1.690;2023-12-07T00:01:17;26.10;;;14.98;;
27612;SDS011;15036;48.094;-1.690;2023-12-07T00:03:42;21.77;;;13.80;;
27612;SDS011;15036;48.094;-1.690;2023-12-07T00:06:09;20.45;;;13.82;;
27612;SDS011;15036;48.094;-1.690;2023-12-07T00:08:34;20.67;;;14.13;;
27612;SDS011;15036;48.094;-1.690;2023-12-07T00:11:00;21.45;;;13.98;;
27612;SDS011;15036;48.094;-1.690;2023-12-07T00:13:25;22.23;;;13.90;;
27612;SDS011;15036;48.094;-1.690;2023-12-07T00:15:51;19.48;;;13.63;;
27612;SDS011;15036;48.094;-1.690;2023-12-07T00:18:16;19.58;;;14.30;;
27612;SDS011;15036;48.094;-1.690;2023-12-07T00:20:42;19.00;;;12.65;;
27612;SDS011;15036;48.094;-1.690;2023-12-07T00:23:07;22.10;;;13.30;;
27612;SDS011;15036;48.094;-1.690;2023-12-07T00:25:32;19.88;;;13.10;;
27612;SDS011;15036;48.094;-1.690;2023-12-07T00:27:59;19.95;;;12.95;;
27612;SDS011;15036;48.094;-1.690;2023-12-07T00:30:24;23.20;;;13.82;;
27612;SDS011;15036;48.094;-1.690;2023-12-07T00:32:50;22.58;;;13.07;;
27612;SDS011;15036;48.094;-1.690;2023-12-07T00:35:16;20.23;;;12.82;;
27612;SDS011;15036;48.094;-1.690;2023-12-07T00:37:42;18.20;;;12.15;;
27612;SDS011;15036;48.094;-1.690;2023-12-07T00:40:08;18.70;;;12.10;;
27612;SDS011;15036;48.094;-1.690;2023-12-07T00:42:34;18.80;;;12.55;;
27612;SDS011;15036;48.094;-1.690;2023-12-07T00:44:59;19.67;;;11.52;;
27612;SDS011;15036;48.094;-1.690;2023-12-07T00:47:25;20.38;;;12.85;;
27612;SDS011;15036;48.094;-1.690;2023-12-07T00:49:50;22.27;;;12.57;;
27612;SDS011;15036;48.094;-1.690;2023-12-07T00:52:17;20.25;;;12.82;;
27612;SDS011;15036;48.094;-1.690;2023-12-07T00:54:44;18.63;;;11.13;;
27612;SDS011;15036;48.094;-1.690;2023-12-07T00:57:09;18.80;;;12.32;;
27612;SDS011;15036;48.094;-1.690;2023-12-07T00:59:35;19.02;;;11.80;;
27612;SDS011;15036;48.094;-1.690;2023-12-07T01:02:11;19.15;;;11.55;;
27612;SDS011;15036;48.094;-1.690;2023-12-07T01:04:36;16.42;;;11.10;;
27612;SDS011;15036;48.094;-1.690;2023-12-07T01:07:02;20.30;;;11.80;;
27612;SDS011;15036;48.094;-1.690;2023-12-07T01:09:27;19.42;;;11.05;;
27612;SDS011;15036;48.094;-1.690;2023-12-07T01:11:53;17.75;;;11.50;;
27612;SDS011;15036;48.094;-1.690;2023-12-07T01:14:18;18.60;;;11.32;;
27612;SDS011;15036;48.094;-1.690;2023-12-07T01:16:44;17.63;;;10.77;;
27612;SDS011;15036;48.094;-1.690;2023-12-07T01:19:09;17.67;;;10.40;;
27612;SDS011;15036;48.094;-1.690;2023-12-07T01:21:35;16.48;;;10.15;;
27612;SDS011;15036;48.094;-1.690;2023-12-07T01:24:00;16.35;;;10.18;;
27612;SDS011;15036;48.094;-1.690;2023-12-07T01:26:26;15.90;;;9.80;;
27612;SDS011;15036;48.094;-1.690;2023-12-07T01:28:51;16.90;;;9.82;;
27612;SDS011;15036;48.094;-1.690;2023-12-07T01:31:17;17.83;;;9.07;;
27612;SDS011;15036;48.094;-1.690;2023-12-07T01:33:45;15.02;;;9.98;;
27612;SDS011;15036;48.094;-1.690;2023-12-07T01:36:10;14.48;;;9.40;;
27612;SDS011;15036;48.094;-1.690;2023-12-07T01:38:36;16.15;;;8.80;;
27612;SDS011;15036;48.094;-1.690;2023-12-07T01:41:02;13.00;;;8.23;;
27612;SDS011;15036;48.094;-1.690;2023-12-07T01:43:27;13.93;;;8.48;;
27612;SDS011;15036;48.094;-1.690;2023-12-07T01:45:55;14.82;;;8.27;;
27612;SDS011;15036;48.094;-1.690;2023-12-07T01:48:22;14.90;;;8.23;;
27612;SDS011;15036;48.094;-1.690;2023-12-07T01:50:49;11.80;;;7.22;;
27612;SDS011;15036;48.094;-1.690;2023-12-07T01:53:16;11.93;;;7.00;;
27612;SDS011;15036;48.094;-1.690;2023-12-07T01:55:42;13.23;;;7.22;;
27612;SDS011;15036;48.094;-1.690;2023-12-07T01:58:07;11.50;;;7.00;;
27612;SDS011;15036;48.094;-1.690;2023-12-07T02:00:33;10.25;;;7.10;;
27612;SDS011;15036;48.094;-1.690;2023-12-07T02:03:00;14.45;;;7.10;;
27612;SDS011;15036;48.094;-1.690;2023-12-07T02:05:27;12.15;;;6.63;;
27612;SDS011;15036;48.094;-1.690;2023-12-07T02:07:54;11.27;;;7.00;;
27612;SDS011;15036;48.094;-1.690;2023-12-07T02:10:19;11.90;;;6.43;;
27612;SDS011;15036;48.094;-1.690;2023-12-07T02:12:46;10.75;;;6.57;;
27612;SDS011;15036;48.094;-1.690;2023-12-07T02:15:13;12.30;;;6.28;;
27612;SDS011;15036;48.094;-1.690;2023-12-07T02:20:12;12.02;;;6.10;;
27612;SDS011;15036;48.094;-1.690;2023-12-07T02:22:47;9.55;;;5.68;;
27612;SDS011;15036;48.094;-1.690;2023-12-07T02:25:18;10.75;;;6.18;;
27612;SDS011;15036;48.094;-1.690;2023-12-07T02:27:48;10.43;;;5.50;;
27612;SDS011;15036;48.094;-1.690;2023-12-07T02:30:14;8.40;;;5.18;;
27612;SDS011;15036;48.094;-1.690;2023-12-07T02:32:40;13.45;;;5.78;;
27612;SDS011;15036;48.094;-1.690;2023-12-07T02:35:07;10.20;;;5.40;;
27612;SDS011;15036;48.094;-1.690;2023-12-07T02:37:40;8.98;;;5.20;;
27612;SDS011;15036;48.094;-1.690;2023-12-07T02:40:09;11.40;;;5.38;;
27612;SDS011;15036;48.094;-1.690;2023-12-07T02:42:40;11.90;;;5.10;;
27612;SDS011;15036;48.094;-1.690;2023-12-07T02:45:08;10.85;;;4.85;;
27612;SDS011;15036;48.094;-1.690;2023-12-07T02:47:34;8.10;;;4.43;;
27612;SDS011;15036;48.094;-1.690;2023-12-07T02:50:02;7.35;;;4.40;;
27612;SDS011;15036;48.094;-1.690;2023-12-07T02:52:29;9.13;;;4.30;;
27612;SDS011;15036;48.094;-1.690;2023-12-07T02:54:55;8.55;;;4.30;;
27612;SDS011;15036;48.094;-1.690;2023-12-07T02:57:20;9.55;;;4.22;;
27612;SDS011;15036;48.094;-1.690;2023-12-07T02:59:45;9.85;;;4.18;;
27612;SDS011;15036;48.094;-1.690;2023-12-07T03:02:11;8.68;;;4.13;;
27612;SDS011;15036;48.094;-1.690;2023-12-07T03:04:37;9.23;;;3.95;;
27612;SDS011;15036;48.094;-1.690;2023-12-07T03:07:03;9.63;;;4.10;;
27612;SDS011;15036;48.094;-1.690;2023-12-07T03:09:28;9.80;;;4.32;;
27612;SDS011;15036;48.094;-1.690;2023-12-07T03:11:54;8.88;;;3.83;;
27612;SDS011;15036;48.094;-1.690;2023-12-07T03:14:19;8.90;;;3.70;;
27612;SDS011;15036;48.094;-1.690;2023-12-07T03:16:45;8.48;;;4.38;;
27612;SDS011;15036;48.094;-1.690;2023-12-07T03:19:10;11.27;;;3.83;;
27612;SDS011;15036;48.094;-1.690;2023-12-07T03:21:38;9.95;;;3.95;;
27612;SDS011;15036;48.094;-1.690;2023-12-07T03:24:06;9.73;;;3.85;;
27612;SDS011;15036;48.094;-1.690;2023-12-07T03:26:32;9.07;;;3.80;;
27612;SDS011;15036;48.094;-1.690;2023-12-07T03:28:57;8.40;;;3.67;;
27612;SDS011;15036;48.094;-1.690;2023-12-07T03:31:23;8.90;;;4.03;;
27612;SDS011;15036;48.094;-1.690;2023-12-07T03:33:48;8.35;;;3.95;;
27612;SDS011;15036;48.094;-1.690;2023-12-07T03:36:13;7.60;;;3.90;;
27612;SDS011;15036;48.094;-1.690;2023-12-07T03:38:39;8.45;;;4.30;;
27612;SDS011;15036;48.094;-1.690;2023-12-07T03:41:04;8.98;;;3.97;;
27612;SDS011;15036;48.094;-1.690;2023-12-07T03:43:29;10.27;;;3.83;;
27612;SDS011;15036;48.094;-1.690;2023-12-07T03:45:55;7.65;;;3.78;;
27612;SDS011;15036;48.094;-1.690;2023-12-07T03:48:20;9.48;;;3.63;;
27612;SDS011;15036;48.094;-1.690;2023-12-07T03:50:46;8.60;;;3.70;;
27612;SDS011;15036;48.094;-1.690;2023-12-07T03:53:11;9.45;;;3.70;;
27612;SDS011;15036;48.094;-1.690;2023-12-07T03:55:37;7.28;;;3.08;;
27612;SDS011;15036;48.094;-1.690;2023-12-07T03:58:03;9.55;;;3.83;;
27612;SDS011;15036;48.094;-1.690;2023-12-07T04:00:29;12.00;;;3.70;;
27612;SDS011;15036;48.094;-1.690;2023-12-07T04:02:55;8.80;;;3.30;;
27612;SDS011;15036;48.094;-1.690;2023-12-07T04:05:20;7.40;;;3.17;;
27612;SDS011;15036;48.094;-1.690;2023-12-07T04:07:46;10.15;;;3.50;;
27612;SDS011;15036;48.094;-1.690;2023-12-07T04:10:11;8.10;;;3.53;;
27612;SDS011;15036;48.094;-1.690;2023-12-07T04:12:37;8.77;;;3.28;;
27612;SDS011;15036;48.094;-1.690;2023-12-07T04:15:04;9.55;;;3.83;;
27612;SDS011;15036;48.094;-1.690;2023-12-07T04:17:31;8.57;;;3.22;;
27612;SDS011;15036;48.094;-1.690;2023-12-07T04:19:57;6.00;;;3.13;;
27612;SDS011;15036;48.094;-1.690;2023-12-07T04:22:23;10.23;;;3.90;;
27612;SDS011;15036;48.094;-1.690;2023-12-07T04:24:48;9.80;;;3.47;;
27612;SDS011;15036;48.094;-1.690;2023-12-07T04:27:13;9.43;;;3.53;;
27612;SDS011;15036;48.094;-1.690;2023-12-07T04:29:39;11.10;;;3.30;;
27612;SDS011;15036;48.094;-1.690;2023-12-07T04:32:06;7.75;;;3.13;;
27612;SDS011;15036;48.094;-1.690;2023-12-07T04:34:32;7.75;;;3.00;;
27612;SDS011;15036;48.094;-1.690;2023-12-07T04:36:57;8.95;;;3.42;;
27612;SDS011;15036;48.094;-1.690;2023-12-07T04:39:24;8.18;;;3.35;;
27612;SDS011;15036;48.094;-1.690;2023-12-07T04:41:49;9.05;;;3.50;;
27612;SDS011;15036;48.094;-1.690;2023-12-07T04:44:15;8.70;;;3.58;;
27612;SDS011;15036;48.094;-1.690;2023-12-07T04:46:41;10.00;;;3.55;;
27612;SDS011;15036;48.094;-1.690;2023-12-07T04:49:07;10.30;;;3.72;;
27612;SDS011;15036;48.094;-1.690;2023-12-07T04:51:32;8.73;;;3.70;;
27612;SDS011;15036;48.094;-1.690;2023-12-07T04:53:58;12.88;;;4.10;;
27612;SDS011;15036;48.094;-1.690;2023-12-07T04:56:23;7.50;;;3.40;;
27612;SDS011;15036;48.094;-1.690;2023-12-07T04:58:48;8.68;;;3.45;;
27612;SDS011;15036;48.094;-1.690;2023-12-07T05:01:14;8.40;;;3.75;;
27612;SDS011;15036;48.094;-1.690;2023-12-07T05:03:39;10.30;;;3.83;;
27612;SDS011;15036;48.094;-1.690;2023-12-07T05:06:06;9.00;;;3.42;;
27612;SDS011;15036;48.094;-1.690;2023-12-07T05:08:32;9.13;;;4.00;;
27612;SDS011;15036;48.094;-1.690;2023-12-07T05:10:58;8.75;;;3.80;;
27612;SDS011;15036;48.094;-1.690;2023-12-07T05:13:23;9.20;;;3.70;;
27612;SDS011;15036;48.094;-1.690;2023-12-07T05:15:49;11.02;;;4.07;;
27612;SDS011;15036;48.094;-1.690;2023-12-07T05:18:14;10.20;;;3.58;;
27612;SDS011;15036;48.094;-1.690;2023-12-07T05:20:41;8.35;;;3.70;;
27612;SDS011;15036;48.094;-1.690;2023-12-07T05:23:06;9.38;;;3.78;;
27612;SDS011;15036;48.094;-1.690;2023-12-07T05:25:31;11.05;;;3.72;;
27612;SDS011;15036;48.094;-1.690;2023-12-07T05:27:57;10.07;;;4.00;;
27612;SDS011;15036;48.094;-1.690;2023-12-07T05:30:23;11.15;;;3.83;;
27612;SDS011;15036;48.094;-1.690;2023-12-07T05:32:48;8.40;;;3.53;;
27612;SDS011;15036;48.094;-1.690;2023-12-07T05:35:14;14.32;;;4.25;;
27612;SDS011;15036;48.094;-1.690;2023-12-07T05:37:39;10.57;;;3.42;;
27612;SDS011;15036;48.094;-1.690;2023-12-07T05:40:04;8.55;;;3.85;;
27612;SDS011;15036;48.094;-1.690;2023-12-07T05:42:31;7.57;;;3.35;;
27612;SDS011;15036;48.094;-1.690;2023-12-07T05:44:56;7.10;;;3.83;;
27612;SDS011;15036;48.094;-1.690;2023-12-07T05:47:21;11.02;;;3.70;;
27612;SDS011;15036;48.094;-1.690;2023-12-07T05:49:48;9.80;;;3.58;;
27612;SDS011;15036;48.094;-1.690;2023-12-07T05:52:13;9.90;;;3.65;;
27612;SDS011;15036;48.094;-1.690;2023-12-07T05:54:39;8.38;;;3.47;;
27612;SDS011;15036;48.094;-1.690;2023-12-07T05:57:07;7.53;;;3.90;;
27612;SDS011;15036;48.094;-1.690;2023-12-07T05:59:36;9.75;;;3.20;;
27612;SDS011;15036;48.094;-1.690;2023-12-07T06:02:03;8.15;;;3.47;;
27612;SDS011;15036;48.094;-1.690;2023-12-07T06:04:29;9.65;;;3.70;;
27612;SDS011;15036;48.094;-1.690;2023-12-07T06:06:56;8.57;;;3.50;;
27612;SDS011;15036;48.094;-1.690;2023-12-07T06:09:21;8.45;;;3.45;;
27612;SDS011;15036;48.094;-1.690;2023-12-07T06:11:47;8.52;;;3.63;;
27612;SDS011;15036;48.094;-1.690;2023-12-07T06:14:12;9.23;;;3.72;;
27612;SDS011;15036;48.094;-1.690;2023-12-07T06:16:38;9.38;;;3.47;;
27612;SDS011;15036;48.094;-1.690;2023-12-07T06:19:03;9.95;;;4.15;;
27612;SDS011;15036;48.094;-1.690;2023-12-07T06:21:29;8.82;;;3.78;;
27612;SDS011;15036;48.094;-1.690;2023-12-07T06:23:55;10.75;;;3.58;;
27612;SDS011;15036;48.094;-1.690;2023-12-07T06:26:20;10.38;;;3.92;;
27612;SDS011;15036;48.094;-1.690;2023-12-07T06:28:46;7.57;;;3.78;;
27612;SDS011;15036;48.094;-1.690;2023-12-07T06:31:12;8.80;;;3.90;;
27612;SDS011;15036;48.094;-1.690;2023-12-07T06:33:40;11.35;;;3.78;;
27612;SDS011;15036;48.094;-1.690;2023-12-07T06:36:06;9.85;;;3.53;;
27612;SDS011;15036;48.094;-1.690;2023-12-07T06:38:31;9.30;;;3.70;;
27612;SDS011;15036;48.094;-1.690;2023-12-07T06:40:57;8.68;;;3.60;;
27612;SDS011;15036;48.094;-1.690;2023-12-07T06:43:23;15.02;;;4.35;;
27612;SDS011;15036;48.094;-1.690;2023-12-07T06:45:49;11.60;;;3.90;;
27612;SDS011;15036;48.094;-1.690;2023-12-07T06:48:15;11.25;;;3.78;;
27612;SDS011;15036;48.094;-1.690;2023-12-07T06:50:41;8.52;;;4.15;;
27612;SDS011;15036;48.094;-1.690;2023-12-07T06:53:06;12.65;;;4.45;;
27612;SDS011;15036;48.094;-1.690;2023-12-07T06:55:32;9.90;;;4.15;;
27612;SDS011;15036;48.094;-1.690;2023-12-07T06:57:57;8.98;;;4.20;;
27612;SDS011;15036;48.094;-1.690;2023-12-07T07:00:22;8.55;;;3.83;;
27612;SDS011;15036;48.094;-1.690;2023-12-07T07:02:49;7.43;;;3.45;;
27612;SDS011;15036;48.094;-1.690;2023-12-07T07:05:15;11.07;;;4.10;;
27612;SDS011;15036;48.094;-1.690;2023-12-07T07:07:40;9.68;;;3.72;;
27612;SDS011;15036;48.094;-1.690;2023-12-07T07:10:06;10.32;;;4.15;;
27612;SDS011;15036;48.094;-1.690;2023-12-07T07:12:34;9.40;;;3.90;;
27612;SDS011;15036;48.094;-1.690;2023-12-07T07:15:00;10.07;;;4.15;;
27612;SDS011;15036;48.094;-1.690;2023-12-07T07:17:25;8.52;;;4.15;;
27612;SDS011;15036;48.094;-1.690;2023-12-07T07:19:50;12.00;;;4.55;;
27612;SDS011;15036;48.094;-1.690;2023-12-07T07:22:16;12.63;;;4.25;;
27612;SDS011;15036;48.094;-1.690;2023-12-07T07:24:41;7.85;;;4.10;;
27612;SDS011;15036;48.094;-1.690;2023-12-07T07:27:07;11.43;;;4.30;;
27612;SDS011;15036;48.094;-1.690;2023-12-07T07:29:32;10.52;;;4.07;;
27612;SDS011;15036;48.094;-1.690;2023-12-07T07:31:58;8.80;;;4.88;;
27612;SDS011;15036;48.094;-1.690;2023-12-07T07:34:24;9.32;;;4.22;;
27612;SDS011;15036;48.094;-1.690;2023-12-07T07:36:51;11.88;;;4.88;;
27612;SDS011;15036;48.094;-1.690;2023-12-07T07:39:16;11.02;;;4.68;;
27612;SDS011;15036;48.094;-1.690;2023-12-07T07:41:42;11.20;;;4.55;;
27612;SDS011;15036;48.094;-1.690;2023-12-07T07:44:07;9.77;;;4.80;;
27612;SDS011;15036;48.094;-1.690;2023-12-07T07:46:32;12.00;;;4.93;;
27612;SDS011;15036;48.094;-1.690;2023-12-07T07:48:58;11.50;;;4.50;;
27612;SDS011;15036;48.094;-1.690;2023-12-07T07:51:23;7.10;;;4.65;;
27612;SDS011;15036;48.094;-1.690;2023-12-07T07:53:48;10.85;;;5.00;;
27612;SDS011;15036;48.094;-1.690;2023-12-07T07:56:14;9.25;;;4.72;;
27612;SDS011;15036;48.094;-1.690;2023-12-07T07:58:39;11.52;;;5.20;;
27612;SDS011;15036;48.094;-1.690;2023-12-07T08:01:04;8.07;;;4.50;;
27612;SDS011;15036;48.094;-1.690;2023-12-07T08:03:30;7.13;;;4.53;;
27612;SDS011;15036;48.094;-1.690;2023-12-07T08:05:56;7.80;;;4.55;;
27612;SDS011;15036;48.094;-1.690;2023-12-07T08:08:21;8.88;;;4.47;;
27612;SDS011;15036;48.094;-1.690;2023-12-07T08:10:47;9.90;;;4.88;;
27612;SDS011;15036;48.094;-1.690;2023-12-07T08:13:12;10.95;;;4.50;;
27612;SDS011;15036;48.094;-1.690;2023-12-07T08:15:37;12.73;;;4.90;;
27612;SDS011;15036;48.094;-1.690;2023-12-07T08:18:03;10.63;;;5.05;;
27612;SDS011;15036;48.094;-1.690;2023-12-07T08:20:28;10.77;;;5.15;;
27612;SDS011;15036;48.094;-1.690;2023-12-07T08:22:53;9.57;;;5.45;;
27612;SDS011;15036;48.094;-1.690;2023-12-07T08:25:19;9.52;;;5.10;;
27612;SDS011;15036;48.094;-1.690;2023-12-07T08:27:44;9.82;;;5.10;;
27612;SDS011;15036;48.094;-1.690;2023-12-07T08:30:11;9.18;;;5.03;;
27612;SDS011;15036;48.094;-1.690;2023-12-07T08:32:37;9.45;;;5.43;;
27612;SDS011;15036;48.094;-1.690;2023-12-07T08:35:03;11.60;;;4.88;;
27612;SDS011;15036;48.094;-1.690;2023-12-07T08:37:30;7.65;;;4.40;;
27612;SDS011;15036;48.094;-1.690;2023-12-07T08:39:56;9.80;;;5.05;;
27612;SDS011;15036;48.094;-1.690;2023-12-07T08:42:21;9.90;;;4.82;;
27612;SDS011;15036;48.094;-1.690;2023-12-07T08:44:48;8.73;;;4.45;;
27612;SDS011;15036;48.094;-1.690;2023-12-07T08:47:13;9.88;;;4.78;;
27612;SDS011;15036;48.094;-1.690;2023-12-07T08:49:39;7.93;;;4.82;;
27612;SDS011;15036;48.094;-1.690;2023-12-07T08:52:04;10.55;;;4.72;;
27612;SDS011;15036;48.094;-1.690;2023-12-07T08:54:30;8.75;;;4.78;;
27612;SDS011;15036;48.094;-1.690;2023-12-07T08:56:56;10.38;;;5.25;;
27612;SDS011;15036;48.094;-1.690;2023-12-07T08:59:21;9.85;;;4.90;;
27612;SDS011;15036;48.094;-1.690;2023-12-07T09:01:46;10.52;;;4.97;;
27612;SDS011;15036;48.094;-1.690;2023-12-07T09:04:12;7.75;;;4.60;;
27612;SDS011;15036;48.094;-1.690;2023-12-07T09:06:37;11.45;;;5.00;;
27612;SDS011;15036;48.094;-1.690;2023-12-07T09:09:03;12.27;;;4.82;;
27612;SDS011;15036;48.094;-1.690;2023-12-07T09:11:32;8.60;;;5.35;;
27612;SDS011;15036;48.094;-1.690;2023-12-07T09:13:57;10.25;;;5.30;;
27612;SDS011;15036;48.094;-1.690;2023-12-07T09:16:23;10.63;;;5.30;;
27612;SDS011;15036;48.094;-1.690;2023-12-07T09:18:49;8.95;;;5.70;;
27612;SDS011;15036;48.094;-1.690;2023-12-07T09:21:15;9.45;;;6.07;;
27612;SDS011;15036;48.094;-1.690;2023-12-07T09:23:40;11.18;;;5.10;;
27612;SDS011;15036;48.094;-1.690;2023-12-07T09:26:06;9.93;;;5.78;;
27612;SDS011;15036;48.094;-1.690;2023-12-07T09:28:32;12.35;;;5.47;;
27612;SDS011;15036;48.094;-1.690;2023-12-07T09:30:58;12.68;;;5.82;;
27612;SDS011;15036;48.094;-1.690;2023-12-07T09:33:24;7.47;;;4.85;;
27612;SDS011;15036;48.094;-1.690;2023-12-07T09:35:49;12.80;;;5.20;;
27612;SDS011;15036;48.094;-1.690;2023-12-07T09:38:15;10.35;;;5.72;;
27612;SDS011;15036;48.094;-1.690;2023-12-07T09:40:40;8.50;;;5.75;;
27612;SDS011;15036;48.094;-1.690;2023-12-07T09:43:05;8.60;;;5.28;;
27612;SDS011;15036;48.094;-1.690;2023-12-07T09:45:31;11.90;;;5.43;;
27612;SDS011;15036;48.094;-1.690;2023-12-07T09:47:57;9.75;;;5.72;;
27612;SDS011;15036;48.094;-1.690;2023-12-07T09:50:24;8.75;;;5.75;;
27612;SDS011;15036;48.094;-1.690;2023-12-07T09:52:51;11.73;;;5.57;;
27612;SDS011;15036;48.094;-1.690;2023-12-07T09:55:17;9.30;;;5.93;;
27612;SDS011;15036;48.094;-1.690;2023-12-07T09:57:44;10.38;;;5.72;;
27612;SDS011;15036;48.094;-1.690;2023-12-07T10:00:10;10.68;;;6.18;;
27612;SDS011;15036;48.094;-1.690;2023-12-07T10:02:39;8.63;;;5.32;;
27612;SDS011;15036;48.094;-1.690;2023-12-07T10:05:06;11.85;;;5.93;;
27612;SDS011;15036;48.094;-1.690;2023-12-07T10:07:33;10.25;;;5.60;;
27612;SDS011;15036;48.094;-1.690;2023-12-07T10:10:05;8.98;;;6.00;;
27612;SDS011;15036;48.094;-1.690;2023-12-07T10:12:31;9.23;;;5.88;;
27612;SDS011;15036;48.094;-1.690;2023-12-07T10:14:59;9.45;;;5.78;;
27612;SDS011;15036;48.094;-1.690;2023-12-07T10:17:49;11.98;;;6.68;;
27612;SDS011;15036;48.094;-1.690;2023-12-07T10:20:19;10.90;;;6.70;;
27612;SDS011;15036;48.094;-1.690;2023-12-07T10:22:49;11.02;;;6.63;;
27612;SDS011;15036;48.094;-1.690;2023-12-07T10:25:27;11.63;;;6.20;;
27612;SDS011;15036;48.094;-1.690;2023-12-07T10:27:53;9.40;;;5.75;;
27612;SDS011;15036;48.094;-1.690;2023-12-07T10:30:19;8.82;;;6.30;;
27612;SDS011;15036;48.094;-1.690;2023-12-07T10:32:50;9.55;;;6.63;;
27612;SDS011;15036;48.094;-1.690;2023-12-07T10:35:16;12.23;;;6.70;;
27612;SDS011;15036;48.094;-1.690;2023-12-07T10:37:41;12.55;;;6.25;;
27612;SDS011;15036;48.094;-1.690;2023-12-07T10:40:07;10.35;;;6.15;;
27612;SDS011;15036;48.094;-1.690;2023-12-07T10:42:33;11.77;;;7.07;;
27612;SDS011;15036;48.094;-1.690;2023-12-07T10:45:02;13.55;;;8.27;;
27612;SDS011;15036;48.094;-1.690;2023-12-07T10:47:30;15.80;;;8.23;;
27612;SDS011;15036;48.094;-1.690;2023-12-07T10:49:57;11.77;;;6.68;;
27612;SDS011;15036;48.094;-1.690;2023-12-07T10:52:25;12.77;;;7.30;;
27612;SDS011;15036;48.094;-1.690;2023-12-07T10:55:02;11.77;;;6.70;;
27612;SDS011;15036;48.094;-1.690;2023-12-07T10:57:29;11.73;;;7.60;;
27612;SDS011;15036;48.094;-1.690;2023-12-07T10:59:57;15.68;;;8.13;;
27612;SDS011;15036;48.094;-1.690;2023-12-07T11:02:25;13.63;;;8.68;;
27612;SDS011;15036;48.094;-1.690;2023-12-07T11:04:52;11.38;;;7.55;;
27612;SDS011;15036;48.094;-1.690;2023-12-07T11:07:20;12.90;;;8.18;;
27612;SDS011;15036;48.094;-1.690;2023-12-07T11:09:53;13.45;;;7.82;;
27612;SDS011;15036;48.094;-1.690;2023-12-07T11:12:45;13.32;;;7.85;;
27612;SDS011;15036;48.094;-1.690;2023-12-07T11:15:16;12.88;;;6.63;;
27612;SDS011;15036;48.094;-1.690;2023-12-07T11:18:01;13.63;;;7.82;;
27612;SDS011;15036;48.094;-1.690;2023-12-07T11:20:43;9.07;;;6.38;;
27612;SDS011;15036;48.094;-1.690;2023-12-07T11:23:10;11.07;;;7.07;;
27612;SDS011;15036;48.094;-1.690;2023-12-07T11:25:36;12.27;;;7.53;;
27612;SDS011;15036;48.094;-1.690;2023-12-07T11:28:03;11.82;;;7.15;;
27612;SDS011;15036;48.094;-1.690;2023-12-07T11:30:30;10.68;;;7.40;;
27612;SDS011;15036;48.094;-1.690;2023-12-07T11:32:57;12.27;;;7.53;;
27612;SDS011;15036;48.094;-1.690;2023-12-07T11:35:23;10.52;;;7.13;;
27612;SDS011;15036;48.094;-1.690;2023-12-07T11:40:29;11.82;;;6.60;;
27612;SDS011;15036;48.094;-1.690;2023-12-07T11:42:55;13.18;;;6.63;;
27612;SDS011;15036;48.094;-1.690;2023-12-07T11:48:16;10.98;;;6.43;;
27612;SDS011;15036;48.094;-1.690;2023-12-07T11:51:03;11.40;;;7.00;;
27612;SDS011;15036;48.094;-1.690;2023-12-07T11:53:34;11.27;;;7.10;;
27612;SDS011;15036;48.094;-1.690;2023-12-07T11:56:02;11.23;;;7.00;;
27612;SDS011;15036;48.094;-1.690;2023-12-07T11:58:31;10.88;;;7.00;;
27612;SDS011;15036;48.094;-1.690;2023-12-07T12:00:58;10.98;;;6.55;;
27612;SDS011;15036;48.094;-1.690;2023-12-07T12:03:24;10.68;;;5.88;;
27612;SDS011;15036;48.094;-1.690;2023-12-07T12:05:51;13.02;;;6.07;;
27612;SDS011;15036;48.094;-1.690;2023-12-07T12:08:16;9.23;;;5.55;;
27612;SDS011;15036;48.094;-1.690;2023-12-07T12:10:43;8.45;;;6.03;;
27612;SDS011;15036;48.094;-1.690;2023-12-07T12:13:09;8.75;;;5.80;;
27612;SDS011;15036;48.094;-1.690;2023-12-07T12:15:34;9.95;;;6.30;;
27612;SDS011;15036;48.094;-1.690;2023-12-07T12:18:00;14.45;;;8.23;;
27612;SDS011;15036;48.094;-1.690;2023-12-07T12:20:26;14.80;;;9.13;;
27612;SDS011;15036;48.094;-1.690;2023-12-07T12:22:52;10.73;;;6.72;;
27612;SDS011;15036;48.094;-1.690;2023-12-07T12:25:22;12.50;;;7.00;;
27612;SDS011;15036;48.094;-1.690;2023-12-07T12:27:51;9.05;;;6.05;;
27612;SDS011;15036;48.094;-1.690;2023-12-07T12:30:18;10.45;;;5.82;;
27612;SDS011;15036;48.094;-1.690;2023-12-07T12:32:44;8.65;;;6.03;;
27612;SDS011;15036;48.094;-1.690;2023-12-07T12:35:10;8.38;;;5.75;;
27612;SDS011;15036;48.094;-1.690;2023-12-07T12:37:38;8.20;;;5.55;;
27612;SDS011;15036;48.094;-1.690;2023-12-07T12:40:07;9.82;;;5.63;;
27612;SDS011;15036;48.094;-1.690;2023-12-07T12:42:36;8.50;;;5.47;;
27612;SDS011;15036;48.094;-1.690;2023-12-07T12:45:03;8.55;;;5.68;;
27612;SDS011;15036;48.094;-1.690;2023-12-07T12:47:29;8.10;;;5.75;;
27612;SDS011;15036;48.094;-1.690;2023-12-07T12:49:54;7.55;;;5.13;;
27612;SDS011;15036;48.094;-1.690;2023-12-07T12:52:20;8.43;;;5.30;;
27612;SDS011;15036;48.094;-1.690;2023-12-07T12:54:46;9.48;;;5.43;;
27612;SDS011;15036;48.094;-1.690;2023-12-07T12:57:11;10.27;;;4.97;;
27612;SDS011;15036;48.094;-1.690;2023-12-07T12:59:39;8.68;;;5.40;;
27612;SDS011;15036;48.094;-1.690;2023-12-07T13:02:04;7.60;;;5.40;;
27612;SDS011;15036;48.094;-1.690;2023-12-07T13:04:30;7.72;;;5.22;;
27612;SDS011;15036;48.094;-1.690;2023-12-07T13:06:56;10.35;;;5.50;;
27612;SDS011;15036;48.094;-1.690;2023-12-07T13:09:22;9.80;;;5.50;;
27612;SDS011;15036;48.094;-1.690;2023-12-07T13:11:48;11.68;;;5.28;;
27612;SDS011;15036;48.094;-1.690;2023-12-07T13:14:14;16.15;;;6.15;;
27612;SDS011;15036;48.094;-1.690;2023-12-07T13:16:39;7.70;;;4.95;;
27612;SDS011;15036;48.094;-1.690;2023-12-07T13:19:05;7.53;;;5.43;;
27612;SDS011;15036;48.094;-1.690;2023-12-07T13:21:31;7.95;;;5.35;;
27612;SDS011;15036;48.094;-1.690;2023-12-07T13:23:57;8.50;;;5.35;;
27612;SDS011;15036;48.094;-1.690;2023-12-07T13:26:23;9.95;;;5.07;;
27612;SDS011;15036;48.094;-1.690;2023-12-07T13:28:49;8.05;;;5.32;;
27612;SDS011;15036;48.094;-1.690;2023-12-07T13:31:14;10.57;;;5.95;;
27612;SDS011;15036;48.094;-1.690;2023-12-07T13:33:39;10.38;;;5.88;;
27612;SDS011;15036;48.094;-1.690;2023-12-07T13:36:05;9.10;;;5.65;;
27612;SDS011;15036;48.094;-1.690;2023-12-07T13:38:31;10.18;;;6.03;;
27612;SDS011;15036;48.094;-1.690;2023-12-07T13:40:57;8.25;;;5.88;;
27612;SDS011;15036;48.094;-1.690;2023-12-07T13:43:22;9.05;;;5.93;;
27612;SDS011;15036;48.094;-1.690;2023-12-07T13:45:50;11.32;;;6.15;;
27612;SDS011;15036;48.094;-1.690;2023-12-07T13:48:16;9.40;;;5.82;;
27612;SDS011;15036;48.094;-1.690;2023-12-07T13:50:42;10.30;;;5.72;;
27612;SDS011;15036;48.094;-1.690;2023-12-07T13:53:08;9.55;;;5.80;;
27612;SDS011;15036;48.094;-1.690;2023-12-07T13:55:37;9.13;;;6.38;;
27612;SDS011;15036;48.094;-1.690;2023-12-07T13:58:04;12.20;;;6.40;;
27612;SDS011;15036;48.094;-1.690;2023-12-07T14:00:31;9.73;;;6.15;;
27612;SDS011;15036;48.094;-1.690;2023-12-07T14:02:57;8.52;;;6.30;;
27612;SDS011;15036;48.094;-1.690;2023-12-07T14:05:22;10.90;;;5.78;;
27612;SDS011;15036;48.094;-1.690;2023-12-07T14:07:48;8.70;;;6.18;;
27612;SDS011;15036;48.094;-1.690;2023-12-07T14:10:13;9.82;;;6.10;;
27612;SDS011;15036;48.094;-1.690;2023-12-07T14:12:40;10.23;;;6.32;;
27612;SDS011;15036;48.094;-1.690;2023-12-07T14:15:05;8.68;;;6.45;;
27612;SDS011;15036;48.094;-1.690;2023-12-07T14:17:32;11.70;;;6.60;;
27612;SDS011;15036;48.094;-1.690;2023-12-07T14:20:03;12.07;;;5.80;;
27612;SDS011;15036;48.094;-1.690;2023-12-07T14:22:30;8.55;;;5.50;;
27612;SDS011;15036;48.094;-1.690;2023-12-07T14:24:56;11.68;;;6.18;;
27612;SDS011;15036;48.094;-1.690;2023-12-07T14:27:21;7.90;;;6.28;;
27612;SDS011;15036;48.094;-1.690;2023-12-07T14:29:47;8.90;;;7.03;;